Portada
METAR-TAF:

METAR-TAF

Aeroports :

Hat Yai, Tailàndia

latitud: 06-55N, longitud: 100-26E, altitud: 27 m

Observació

L'informe es va fer fa 41 minuts, a les 01:00 UTC
Vent 4 kt del Est
Temperatura 25°C
Humitat 100%
Pressió 1011 hPa
Visibilitat 10 km o més
Escasses núvols a una alçada de 1100 ft
Núvols disperses a una alçada de 2000 ft
Cel ennuvolat a una alçada de 10000 ft

METAR: VTSS 260100Z 10004KT 9999 FEW011 SCT020 BKN100 25/25 Q1011 NOSIG

Hora: 08:41 (01:41 UTC)

Pronòstic

L'informe es va fer fa 2 hores i 41 minuts, a les 23:00 UTC
Pronòstic vàlid del 26 a les 00 UTC al 26 a les 24 UTC
Vent 6 kt del Est/Nord-Est
Visibilitat: 8000 m
Núvols disperses a una alçada de 1500 ft
Cel cobert a una alçada de 10000 ft
pluja
Temporalment
l' 26 a les 00 UTC al 26 a les 06 UTC
Visibilitat: 3000 m
pluja
Temporalment
l' 26 a les 18 UTC al 26 a les 24 UTC
Visibilitat: 3000 m
pluja

TAF: VTSS 252300Z 2600/2624 06006KT 8000 -RA SCT015 OVC100 TEMPO 2600/2606 3000 RA TEMPO 2618/2624 3000 RA

Observacions i pronòstics meteorològics de més de 4000 aeroports (METAR i TAF).

Les estacions disponibles són els punts grocs i vermells al mapa.

Posi el ratolí al punt desitjat per veure el nom de l'estació.

Feu clic per veure les observacions i els pronòstics meteorològics.

Per canviar el mapa: feu clic els botons verds amb una creu de color negre per apropar; al botó verd amb un guió per allunyar la imatge; o en les fletxes verdes per a mapes adjacents.


METAR-TAF: